Flight Track Log - Related Links

Times and Time Zones

All times are in EDT time to prevent confusion due to time zone crossing. See the BJS336 flight status page for this flight to view local times or setup timezone preferences in your user account.

Time Position Orientation Groundspeed Altitude Reporting Facility
EDT Latitude Longitude Course Direction KTS MPH feet Rate Location/Type
Sun 02:20:11 PM 38.4936 -108.0556 224° Southwest 268 308 13,200  Level Denver Center
Sun 02:21:13 PM 38.4467 -108.1736 243° Southwest 332 382 15,300 2,032 Climbing Denver Center
Sun 02:22:15 PM 38.4025 -108.2858 243° Southwest 362 417 17,400 2,468 Climbing Denver Center
Sun 02:23:17 PM 38.3361 -108.4094 236° Southwest 375 432 20,400 2,129 Climbing Denver Center
Sun 02:24:19 PM 38.2928 -108.5283 245° Southwest 377 434 21,800 1,161 Climbing Denver Center
Sun 02:25:21 PM 38.2122 -108.6628 233° Southwest 434 499 22,800 968 Climbing Denver Center
Sun 02:26:23 PM 38.1381 -108.7808 231° Southwest 443 510 23,800 1,016 Climbing Denver Center
Sun 02:27:25 PM 38.0775 -108.9442 245° Southwest 450 518 24,900 1,113 Climbing Denver Center
Sun 02:28:27 PM 38.0242 -109.0850 244° Southwest 456 525 26,100 1,210 Climbing Denver Center
Sun 02:29:29 PM 37.9717 -109.2203 244° Southwest 453 521 27,400 1,200 Climbing Denver Center
Sun 02:30:32 PM 37.9117 -109.3803 245° Southwest 452 520 28,600 1,056 Climbing Denver Center
Sun 02:31:34 PM 37.8578 -109.5197 244° Southwest 458 527 29,600 1,016 Climbing Denver Center
Sun 02:32:36 PM 37.7933 -109.6831 244° Southwest 464 534 30,700 882 Climbing Denver Center
Sun 02:33:50 PM 37.7383 -109.8228 244° Southwest 465 535 31,600 926 Climbing Denver Center
Sun 02:34:52 PM 37.6639 -110.0069 243° Southwest 463 533 32,800 1,113 Climbing Denver Center
Sun 02:35:54 PM 37.5989 -110.1703 243° Southwest 465 535 33,900 1,016 Climbing Denver Center
Sun 02:36:56 PM 37.5431 -110.3064 243° Southwest 460 529 34,900 871 Climbing Denver Center
Sun 02:37:58 PM 37.4972 -110.4197 243° Southwest 454 522 35,700 912 Climbing Denver Center
Sun 02:39:01 PM 37.4294 -110.5867 243° Southwest 451 519 36,800 1,008 Climbing Denver Center
Sun 02:40:03 PM 37.3717 -110.7228 242° Southwest 441 507 37,800 1,016 Climbing Denver Center
Sun 02:41:05 PM 37.3056 -110.8856 243° Southwest 436 502 38,900 823 Climbing Denver Center
Sun 02:42:07 PM 37.2503 -111.0181 242° Southwest 431 496 39,500 532 Climbing Denver Center
Sun 02:43:09 PM 37.1958 -111.1519 243° Southwest 431 496 40,000 242 Climbing Denver Center
Sun 02:44:11 PM 37.1389 -111.2881 242° Southwest 438 504 40,000  Level Denver Center
Sun 02:45:13 PM 37.0792 -111.4278 242° Southwest 451 519 40,000  Level Denver Center
Sun 02:46:42 PM 36.9822 -111.6542 242° Southwest 458 527 40,000  Level Los Angeles Center
Sun 02:47:44 PM 36.9219 -111.7981 242° Southwest 465 535 40,000  Level Los Angeles Center
Sun 02:48:47 PM 36.8611 -111.9411 242° Southwest 463 533 40,000  Level Los Angeles Center
Sun 02:50:01 PM 36.8003 -112.0847 242° Southwest 465 535 40,000  Level Los Angeles Center
Sun 02:51:03 PM 36.7286 -112.2539 242° Southwest 461 531 40,000  Level Los Angeles Center
Sun 02:52:05 PM 36.6664 -112.3972 242° Southwest 465 535 40,000  Level Los Angeles Center
Sun 02:53:07 PM 36.5911 -112.5683 241° Southwest 468 539 40,000  Level Los Angeles Center
Sun 02:54:10 PM 36.5306 -112.7100 242° Southwest 465 535 40,000  Level Los Angeles Center
Sun 02:55:12 PM 36.4794 -112.8581 247° West 463 533 40,000  Level Los Angeles Center
Sun 02:56:14 PM 36.4281 -113.0047 247° West 463 533 40,000  Level Los Angeles Center
Sun 02:57:16 PM 36.3761 -113.1508 238° Southwest 462 532 40,000  Level Los Angeles Center
Sun 02:58:18 PM 36.3139 -113.2947 244° Southwest 462 532 40,000  Level Los Angeles Center
Sun 03:00:00 PM 36.2089 -113.5025 238° Southwest  Level FlightAware Approximate
Sun 03:00:22 PM 36.1758 -113.5958 241° Southwest 457 526 40,000  Level Los Angeles Center
Sun 03:01:24 PM 36.1122 -113.7317 240° Southwest 455 524 40,000  Level Los Angeles Center
Sun 03:03:28 PM 35.9869 -114.0025 240° Southwest 452 520 40,000  Level Los Angeles Center
Sun 03:04:31 PM 35.9233 -114.1381 240° Southwest 454 522 40,000  Level Los Angeles Center
Sun 03:06:00 PM 35.8305 -114.3176 237° Southwest  Level FlightAware Approximate
Sun 03:06:35 PM 35.7967 -114.4067 237° Southwest 451 519 40,000  Level Los Angeles Center
Sun 03:07:37 PM 35.7203 -114.5672 240° Southwest 450 518 40,000  Level Los Angeles Center
Sun 03:08:39 PM 35.6569 -114.7006 240° Southwest 450 518 40,000  Level Los Angeles Center
Sun 03:09:41 PM 35.5936 -114.8344 240° Southwest 451 519 40,000  Level Los Angeles Center
Sun 03:10:43 PM 35.5306 -114.9675 240° Southwest 451 519 40,000  Level Los Angeles Center
Sun 03:11:45 PM 35.4678 -115.0992 240° Southwest 447 514 40,000  Level Los Angeles Center
Sun 03:12:47 PM 35.4028 -115.2317 239° Southwest 448 516 40,000  Level Los Angeles Center
Sun 03:13:50 PM 35.3261 -115.3903 239° Southwest 449 517 40,000  Level Los Angeles Center
Sun 03:14:52 PM 35.2608 -115.5231 239° Southwest 451 519 40,000  Level Los Angeles Center
Sun 03:15:53 PM 35.2164 -115.6156 240° Southwest 453 521 40,000  Level Los Angeles Center
Sun 03:16:56 PM 35.1381 -115.7736 239° Southwest 454 522 40,000  Level Los Angeles Center
Sun 03:19:00 PM 35.0417 -116.0903 250° West 456 525 40,000  Level Los Angeles Center
Sun 03:20:02 PM 35.0078 -116.2392 255° West 456 525 40,000  Level Los Angeles Center
Sun 03:21:04 PM 34.9733 -116.3872 254° West 456 525 40,000  Level Los Angeles Center
Sun 03:22:19 PM 34.9381 -116.5344 254° West 454 522 40,000  Level Los Angeles Center
Sun 03:23:21 PM 34.8961 -116.7131 254° West 455 524 40,000  Level Los Angeles Center
Sun 03:24:23 PM 34.8606 -116.8606 254° West 453 521 40,000 -48 Level Los Angeles Center
Sun 03:25:25 PM 34.8167 -117.0386 253° West 455 524 39,900 -290 Descending Los Angeles Center
Sun 03:26:27 PM 34.7803 -117.1883 254° West 459 528 39,400 -480 Descending Los Angeles Center
Sun 03:27:30 PM 34.7422 -117.3417 253° West 467 537 38,900 -480 Descending Los Angeles Center
Sun 03:28:32 PM 34.7056 -117.4964 254° West 473 544 38,400 -629 Descending Los Angeles Center
Sun 03:29:34 PM 34.6669 -117.6519 253° West 478 550 37,600 -774 Descending Los Angeles Center
Sun 03:30:36 PM 34.6269 -117.8081 253° West 489 563 36,800 -1,016 Descending Los Angeles Center
Sun 03:31:38 PM 34.5828 -117.9964 254° West 489 563 35,500 -1,113 Descending Los Angeles Center
Sun 03:32:40 PM 34.5436 -118.1511 253° West 483 556 34,500 -1,355 Descending Los Angeles Center
Sun 03:33:42 PM 34.5039 -118.3111 253° West 459 528 32,700 -1,839 Descending Los Angeles Center
Sun 03:34:44 PM 34.4656 -118.4622 253° West 468 539 30,700 -1,935 Descending Los Angeles Center
Sun 03:35:46 PM 34.4275 -118.6111 253° West 469 540 28,700 -1,765 Descending Los Angeles Center
Sun 03:37:00 PM 34.3883 -118.7597 252° West 467 537 26,700 -2,277 Descending Los Angeles Center
Sun 03:38:03 PM 34.3522 -118.9383 256° West 463 533 23,500 -3,216 Descending Los Angeles Center
Sun 03:39:05 PM 34.3397 -119.1125 265° West 437 503 20,000 -3,278 Descending Los Angeles Center
Sun 03:39:51 PM 34.3325 -119.2142 265° West 419 482 17,600 -3,022 Descending Los Angeles Center
Sun 03:41:22 PM 34.3103 -119.3942 262° West 371 427 13,100 -2,724 Descending Los Angeles Center
Sun 03:42:23 PM 34.2933 -119.4836 257° West 351 404 10,700 -2,532 Descending Los Angeles Center
Sun 03:43:11 PM 34.2753 -119.5925 259° West 310 357 8,500 -2,037 Descending Los Angeles Center
Sun 03:44:12 PM 34.3036 -119.6797 291° West 261 300 7,000 -1,795 Descending Los Angeles Center
Sun 03:45:18 PM 34.3369 -119.7419 303° West 195 224 4,700 -2,315 Descending Los Angeles Center
Sun 03:46:19 PM 34.3803 -119.7719 330° Northwest 188 216 2,100 -1,966 Descending Los Angeles Center
Sun 03:47:14 PM 34.4142 -119.7975 328° Northwest 162 186 900 -1,309 Descending Los Angeles Center
Sun 03:50:00 PM 34.4167 -119.8333 292° West  Level FlightAware Approximate

Login

Don't have an account? Register now (free) for customized features, flight alerts, and more!